Aérodrome :
LOGIN :

S'inscrire | Disclaimer

   EN    FR    IT 

 










Légende :    VFR   VFR Marginal   IFR   IFR Intensif   IFR Très Intensif
Visi : 
Plafond : 
>= 8 km
>= 3000ft
5 à 8 km
1000 à 3000 ft
1500m à 5 km
500 à 1000 ft
800 à 1500m
200 à 500 ft
< 800m
< 200 ft
Symboles :   Orages  Brouillard  Fortes neiges  Fortes précipitations  Vent > 20 kt
SIGMETs :   Divers  Orages  Givrage  Turbulence  Onde Orograph.  Cendres Volcan.







- Altitude de l'aérodrome : 598 ft
- Code IATA : BQH
- Voir les cartes d'approche


EGKB - Biggin Hill

DERNIER METAR :
  • 162120Z 22016KT 9999 FEW030 13/09 Q1018

METARs EXPIRÉS :
  • 162050Z 22016G26KT 9999 FEW030 14/09 Q1018
  • 162020Z 22015KT 9999 FEW030 14/10 Q1018
  • 161950Z 22015KT 9999 FEW030 14/09 Q1018
  • 161920Z 22014G24KT 190V250 CAVOK 14/10 Q1018

Prévision TAF périmée.
Pas de NOTAMs connus pour ce terrain.
2 SIGMETs publiés pour la FIR London (EGTT) :
 
Onde orographique forte
EGTT SIGMET 09 VALID 162100/170100 EGRR
EGTT LONDON FIR SEV MTW FCST N OF LINE N4941 W00800 - N5059 E00128 FL030/200 STNR NC=
Turbulence forte
EGTT SIGMET 08 VALID 161900/162300 EGRR
EGTT LONDON FIR SEV TURB FCST WI N5100 W00800 - N5220 W00530 - N5500 W00530 - N5500 W00100 - N5500 E00228 - N5017 W00032 - N4919 W00800 - N5100 W00800 SFC/FL060 MOV NNE 15KT NC=



MET'MAP, la Météo Aéronautique d'un coup d'oeil ! - Copyright ORBIFLY Décembre 2007 - Disclaimer

ORBIFLY MET'MAP TEAM :

Programmation & Développement : Alexandra Zaïnal
Conception & Développement : Baudouin d'Aumeries
Co-Programmation & Développement : Marc-Olivier Méhu
Soutien technique & logistique : Manuel Goepfert

Contact : metmap@orbifly.com




SOURCES & CREDITS :

   NOAA